Forside
METAR-TAF:

METAR-TAF

Lufthavne :

Ostrava, Tjekkiet

Breddekreds: 49-41N, længdekreds: 018-07E, højde: 256 m

Aktuelle vejr

Denne rapport blev lavet for 18 minutter siden, kl. 23:30 UTC
Vind 5 kt fra sydvest
Temperatur 9°C
Fugtighed 87%
Tryk 1027 hPa
Sigt 10 km eller mere
ingen skyer under 1500m og ingen cumulonimbus

METAR: LKMT 122330Z 23005KT CAVOK 09/07 Q1027 NOSIG

Tid: 01:48 (23:48 UTC)

Vejrudsigter

Denne rapport blev lavet for 48 minutter siden, kl. 23:00 UTC
Foreløbig gælder fra 13 på 00 UTC til 14 på 00 UTC
Vind 6 kt fra sydvest
Sigt 10 km eller mere
ingen skyer under 1500m og ingen cumulonimbus
Midlertidig
fra 13 på 10 UTC til 13 på 14 UTC
Sigt 10 km eller mere
Spredte skyer i en højde af 4000 ft

TAF: LKMT 122300Z 1300/1400 22006KT CAVOK TEMPO 1310/1314 9999 SCT040

Vejrobservationer og prognoser fra mere end 4000 lufthavne (METAR og TAF).

De gule og røde prikker repræsenterer de meteorologiske stationer.

Flyt musen over at se navnet på stationen.

Så klik over at se vejr observationer og prognoser.

At skifte det kort: Klik på de grønne knapper med et sort kors for at zoome ind; på den grønne knap med en bindestreg for at zoome ud; eller på de grønne pile for tilstødende kort.


METAR-TAF: